createdAt,value
2023-08-09T00:00:23.465Z,13.27
2023-08-09T00:02:51.338Z,13.26
2023-08-09T00:05:19.881Z,13.25
2023-08-09T00:07:49.032Z,13.25
2023-08-09T00:10:16.884Z,13.23
2023-08-09T00:12:44.743Z,13.21
2023-08-09T00:15:12.695Z,13.24
2023-08-09T00:17:40.540Z,13.26
2023-08-09T00:20:09.482Z,13.28
2023-08-09T00:22:37.387Z,13.30
2023-08-09T00:25:07.768Z,13.30
2023-08-09T00:27:35.608Z,13.29
2023-08-09T00:30:03.461Z,13.28
2023-08-09T00:32:33.179Z,13.28
2023-08-09T00:35:01.609Z,13.26
2023-08-09T00:37:29.453Z,13.26
2023-08-09T00:39:57.711Z,13.27
2023-08-09T00:42:28.201Z,13.27
2023-08-09T00:44:56.045Z,13.30
2023-08-09T00:47:23.882Z,13.28
2023-08-09T00:49:53.854Z,13.27
2023-08-09T00:52:22.182Z,13.27
2023-08-09T00:54:50.610Z,13.27
2023-08-09T00:57:18.457Z,13.28
2023-08-09T00:59:47.751Z,13.29
2023-08-09T01:02:15.764Z,13.30
2023-08-09T01:04:44.899Z,13.32
2023-08-09T01:07:18.972Z,13.32
2023-08-09T01:09:52.921Z,13.31
2023-08-09T01:12:27.274Z,13.31
2023-08-09T01:15:00.638Z,13.31
2023-08-09T01:17:30.111Z,13.29
2023-08-09T01:20:00.004Z,13.32
2023-08-09T01:22:30.516Z,13.31
2023-08-09T01:25:04.311Z,13.33
2023-08-09T01:27:32.530Z,13.32
2023-08-09T01:30:01.455Z,13.32
2023-08-09T01:32:31.371Z,13.31
2023-08-09T01:35:01.088Z,13.31
2023-08-09T01:37:35.198Z,13.31
2023-08-09T01:40:09.357Z,13.29
2023-08-09T01:42:38.206Z,13.27
2023-08-09T01:45:07.736Z,13.26
2023-08-09T01:47:36.625Z,13.25
2023-08-09T01:50:05.888Z,13.23
2023-08-09T01:52:34.349Z,13.23
2023-08-09T01:55:02.180Z,13.21
2023-08-09T01:57:31.390Z,13.19
2023-08-09T02:00:00.243Z,13.18
2023-08-09T02:02:28.325Z,13.18
2023-08-09T02:04:56.905Z,13.18
2023-08-09T02:07:24.762Z,13.19
2023-08-09T02:09:52.593Z,13.17
2023-08-09T02:12:20.508Z,13.15
2023-08-09T02:14:49.632Z,13.13
2023-08-09T02:17:17.506Z,13.12
2023-08-09T02:19:45.424Z,13.07
2023-08-09T02:22:13.231Z,13.03
2023-08-09T02:24:41.072Z,13.04
2023-08-09T02:27:09.513Z,13.02
2023-08-09T02:29:37.514Z,13.00
2023-08-09T02:32:07.794Z,12.98
2023-08-09T02:34:35.656Z,12.94
2023-08-09T02:37:03.764Z,12.94
2023-08-09T02:39:33.094Z,12.96
2023-08-09T02:42:01.569Z,12.96
2023-08-09T02:44:30.808Z,12.97
2023-08-09T02:46:58.791Z,12.96
2023-08-09T02:49:28.024Z,12.96
2023-08-09T02:51:55.841Z,12.94
2023-08-09T02:54:24.087Z,12.93
2023-08-09T02:56:51.888Z,12.91
2023-08-09T02:59:19.761Z,12.89
2023-08-09T03:01:47.704Z,12.86
2023-08-09T03:04:15.849Z,12.84
2023-08-09T03:06:45.053Z,12.81
2023-08-09T03:09:13.067Z,12.80
2023-08-09T03:11:40.911Z,12.79
2023-08-09T03:14:08.809Z,12.75
2023-08-09T03:16:36.771Z,12.73
2023-08-09T03:19:05.002Z,12.71
2023-08-09T03:21:33.295Z,12.70
2023-08-09T03:24:02.744Z,12.69
2023-08-09T03:26:31.055Z,12.71
2023-08-09T03:29:01.637Z,12.72
2023-08-09T03:31:29.544Z,12.73
2023-08-09T03:34:00.256Z,12.71
2023-08-09T03:36:28.167Z,12.72
2023-08-09T03:38:56.051Z,12.71
2023-08-09T03:41:26.268Z,12.72
2023-08-09T03:43:54.156Z,12.73
2023-08-09T03:46:22.040Z,12.72
2023-08-09T03:48:50.051Z,12.69
2023-08-09T03:51:18.642Z,12.65
2023-08-09T03:53:48.039Z,12.65
2023-08-09T03:56:15.879Z,12.64
2023-08-09T03:58:45.112Z,12.64
2023-08-09T04:01:13.748Z,12.65
2023-08-09T04:03:41.901Z,12.62
2023-08-09T04:06:10.412Z,12.62
2023-08-09T04:08:38.324Z,12.63
2023-08-09T04:11:06.368Z,12.59
2023-08-09T04:13:34.407Z,12.55
2023-08-09T04:16:03.583Z,12.51
2023-08-09T04:18:31.508Z,12.49
2023-08-09T04:20:59.313Z,12.46
2023-08-09T04:23:27.136Z,12.42
2023-08-09T04:25:55.650Z,12.37
2023-08-09T04:28:23.586Z,12.35
2023-08-09T04:30:51.504Z,12.31
2023-08-09T04:33:20.685Z,12.27
2023-08-09T04:35:48.561Z,12.23
2023-08-09T04:38:16.460Z,12.18
2023-08-09T04:40:44.355Z,12.14
2023-08-09T04:43:12.411Z,12.10
2023-08-09T04:45:40.368Z,12.05
2023-08-09T04:48:08.589Z,12.03
2023-08-09T04:50:37.825Z,11.98
2023-08-09T04:53:05.627Z,11.95
2023-08-09T04:55:33.457Z,11.95
2023-08-09T04:58:01.269Z,11.99
2023-08-09T05:00:29.900Z,12.02
2023-08-09T05:02:57.825Z,12.06
2023-08-09T05:05:25.724Z,12.10
2023-08-09T05:07:54.899Z,12.12
2023-08-09T05:10:22.706Z,12.13
2023-08-09T05:12:50.599Z,12.12
2023-08-09T05:15:18.580Z,12.10
2023-08-09T05:17:46.416Z,12.10
2023-08-09T05:20:14.656Z,12.07
2023-08-09T05:22:42.529Z,12.03
2023-08-09T05:25:12.270Z,12.02
2023-08-09T05:27:40.341Z,12.01
2023-08-09T05:30:09.630Z,12.00
2023-08-09T05:32:37.483Z,12.02
2023-08-09T05:35:06.250Z,12.05
2023-08-09T05:37:34.172Z,12.09
2023-08-09T05:40:02.012Z,12.09
2023-08-09T05:42:31.210Z,12.10
2023-08-09T05:45:00.384Z,12.09
2023-08-09T05:47:28.383Z,12.11
2023-08-09T05:49:56.465Z,12.11
2023-08-09T05:52:24.396Z,12.14
2023-08-09T05:54:52.263Z,12.17
2023-08-09T05:57:20.121Z,12.22
2023-08-09T05:59:49.282Z,12.25
2023-08-09T06:02:17.209Z,12.25
2023-08-09T06:04:45.414Z,12.21
2023-08-09T06:07:14.681Z,12.22
2023-08-09T06:09:42.569Z,12.22
2023-08-09T06:12:10.392Z,12.23
2023-08-09T06:14:38.250Z,12.21
2023-08-09T06:17:07.573Z,12.19
2023-08-09T06:19:35.628Z,12.19
2023-08-09T06:22:03.479Z,12.20
2023-08-09T06:24:31.285Z,12.21
2023-08-09T06:26:59.142Z,12.15
2023-08-09T06:29:27.125Z,12.17
2023-08-09T06:31:54.995Z,12.13
2023-08-09T06:34:24.135Z,12.14
2023-08-09T06:36:52.000Z,12.18
2023-08-09T06:39:20.419Z,12.21
2023-08-09T06:41:48.283Z,12.22
2023-08-09T06:44:17.395Z,12.26
2023-08-09T06:46:45.474Z,12.29
2023-08-09T06:49:13.783Z,12.35
2023-08-09T06:51:43.686Z,12.33
2023-08-09T06:54:11.542Z,12.36
2023-08-09T06:56:41.608Z,12.44
2023-08-09T06:59:09.468Z,12.55
2023-08-09T07:01:37.772Z,12.63
2023-08-09T07:04:06.216Z,12.60
2023-08-09T07:06:34.047Z,12.61
2023-08-09T07:09:03.756Z,12.61
2023-08-09T07:11:31.665Z,12.58
2023-08-09T07:13:59.557Z,12.54
2023-08-09T07:16:27.564Z,12.56
2023-08-09T07:18:57.715Z,12.62
2023-08-09T07:21:29.087Z,12.68
2023-08-09T07:23:58.509Z,12.67
2023-08-09T07:26:28.498Z,12.79
2023-08-09T07:28:56.345Z,12.81
2023-08-09T07:31:26.232Z,12.85
2023-08-09T07:33:54.364Z,12.87
2023-08-09T07:36:22.260Z,12.93
2023-08-09T07:38:50.168Z,12.97
2023-08-09T07:41:17.996Z,13.01
2023-08-09T07:43:47.203Z,12.99
2023-08-09T07:46:15.156Z,13.04
2023-08-09T07:48:43.080Z,13.05
2023-08-09T07:51:13.326Z,13.11
2023-08-09T07:53:43.236Z,13.19
2023-08-09T07:56:12.620Z,13.18
2023-08-09T07:58:40.523Z,13.27
2023-08-09T08:01:09.747Z,13.26
2023-08-09T08:03:37.704Z,13.26
2023-08-09T08:06:06.195Z,13.30
2023-08-09T08:08:34.149Z,13.39
2023-08-09T08:11:02.154Z,13.40
2023-08-09T08:13:30.309Z,13.45
2023-08-09T08:15:58.216Z,13.59
2023-08-09T08:18:28.364Z,13.74
2023-08-09T08:20:56.610Z,13.90
2023-08-09T08:23:24.430Z,13.95
2023-08-09T08:25:52.316Z,13.93
2023-08-09T08:28:20.202Z,13.93
2023-08-09T08:30:48.858Z,14.02
2023-08-09T08:33:18.428Z,14.16
2023-08-09T08:35:55.671Z,14.28
2023-08-09T08:38:27.841Z,14.42
2023-08-09T08:40:56.560Z,14.51
2023-08-09T08:43:25.100Z,14.54
2023-08-09T08:45:54.516Z,14.50
2023-08-09T08:48:22.493Z,14.61
2023-08-09T08:50:52.521Z,14.71
2023-08-09T08:53:21.468Z,14.78
2023-08-09T08:55:49.570Z,14.84
2023-08-09T08:58:17.764Z,14.85
2023-08-09T09:00:45.607Z,14.99
2023-08-09T09:03:13.573Z,15.11
2023-08-09T09:05:41.489Z,15.24
2023-08-09T09:08:14.317Z,15.36
2023-08-09T09:10:46.124Z,15.47
2023-08-09T09:13:25.604Z,15.52
2023-08-09T09:15:55.577Z,15.57
2023-08-09T09:18:24.387Z,15.61
2023-08-09T09:20:52.820Z,15.70
2023-08-09T09:23:29.610Z,15.83
2023-08-09T09:26:05.314Z,15.96
2023-08-09T09:28:39.756Z,15.93
2023-08-09T09:31:08.132Z,15.90
2023-08-09T09:33:36.939Z,15.84
2023-08-09T09:36:06.361Z,15.72
2023-08-09T09:38:35.763Z,15.63
2023-08-09T09:41:03.687Z,15.69
2023-08-09T09:43:39.662Z,15.87
2023-08-09T09:46:29.896Z,16.07
2023-08-09T09:49:06.400Z,16.28
2023-08-09T09:51:37.189Z,16.46
2023-08-09T09:54:07.794Z,16.66
2023-08-09T09:56:37.157Z,16.81
2023-08-09T09:59:05.640Z,16.91
2023-08-09T10:01:34.623Z,17.04
2023-08-09T10:04:08.879Z,17.11
2023-08-09T10:06:40.757Z,17.17
2023-08-09T10:09:11.084Z,17.10
2023-08-09T10:11:39.212Z,17.01
2023-08-09T10:14:10.162Z,17.03
2023-08-09T10:16:40.229Z,17.10
2023-08-09T10:19:12.998Z,17.23
2023-08-09T10:21:42.508Z,17.37
2023-08-09T10:24:14.313Z,17.45
2023-08-09T10:26:45.718Z,17.55
2023-08-09T10:29:16.588Z,17.54
2023-08-09T10:31:51.233Z,17.63
2023-08-09T10:34:20.241Z,17.59
2023-08-09T10:36:54.323Z,17.75
2023-08-09T10:39:25.455Z,17.81
2023-08-09T10:41:58.089Z,17.88
2023-08-09T10:44:36.392Z,17.95
2023-08-09T10:47:06.360Z,18.04
2023-08-09T10:49:36.004Z,18.13
2023-08-09T10:52:17.464Z,18.23
2023-08-09T10:54:48.206Z,18.32
2023-08-09T10:57:17.297Z,18.46
2023-08-09T10:59:47.481Z,18.49
2023-08-09T11:02:18.131Z,18.53
2023-08-09T11:04:46.379Z,18.55
2023-08-09T11:07:21.489Z,18.64
2023-08-09T11:09:50.683Z,18.77
2023-08-09T11:12:18.564Z,18.89
2023-08-09T11:14:46.928Z,18.96
2023-08-09T11:17:15.095Z,18.89
2023-08-09T11:19:43.010Z,18.73
2023-08-09T11:22:12.305Z,18.72
2023-08-09T11:24:40.163Z,18.77
2023-08-09T11:27:09.615Z,18.92
2023-08-09T11:29:39.520Z,19.03
2023-08-09T11:32:07.919Z,19.18
2023-08-09T11:34:35.758Z,19.23
2023-08-09T11:37:03.961Z,19.29
2023-08-09T11:39:31.818Z,19.39
2023-08-09T11:41:59.708Z,19.45
2023-08-09T11:44:31.777Z,19.59
2023-08-09T11:47:02.130Z,19.52
2023-08-09T11:49:31.267Z,19.50
2023-08-09T11:52:01.506Z,19.57
2023-08-09T11:54:30.473Z,19.53
2023-08-09T11:56:59.692Z,19.54
2023-08-09T11:59:29.344Z,19.54
2023-08-09T12:01:58.833Z,19.53
2023-08-09T12:04:30.611Z,19.59
2023-08-09T12:07:00.530Z,19.71
2023-08-09T12:09:33.160Z,19.81
2023-08-09T12:12:07.336Z,19.71
2023-08-09T12:14:37.804Z,19.54
2023-08-09T12:17:06.220Z,19.52
2023-08-09T12:19:34.796Z,19.56
2023-08-09T12:22:05.040Z,19.69
2023-08-09T12:24:33.224Z,19.76
2023-08-09T12:27:01.498Z,19.87
2023-08-09T12:29:29.323Z,19.99
2023-08-09T12:32:00.540Z,20.04
2023-08-09T12:34:29.329Z,20.20
2023-08-09T12:36:57.374Z,20.37
2023-08-09T12:39:25.380Z,20.46
2023-08-09T12:41:54.011Z,20.41
2023-08-09T12:44:21.875Z,20.28
2023-08-09T12:46:50.138Z,20.40
2023-08-09T12:49:19.388Z,20.48
2023-08-09T12:51:47.551Z,20.49
2023-08-09T12:54:15.521Z,20.43
2023-08-09T12:56:43.446Z,20.53
2023-08-09T12:59:11.374Z,20.55
2023-08-09T13:01:39.330Z,20.64
2023-08-09T13:04:08.093Z,20.77
2023-08-09T13:06:37.296Z,20.90
2023-08-09T13:09:10.282Z,20.96
2023-08-09T13:11:38.387Z,21.06
2023-08-09T13:14:06.535Z,21.18
2023-08-09T13:16:34.640Z,21.23
2023-08-09T13:19:02.565Z,21.33
2023-08-09T13:21:30.481Z,21.43
2023-08-09T13:23:59.685Z,21.58
2023-08-09T13:26:27.607Z,21.67
2023-08-09T13:28:55.477Z,21.45
2023-08-09T13:31:23.648Z,21.25
2023-08-09T13:33:51.537Z,20.89
2023-08-09T13:36:19.407Z,20.72
2023-08-09T13:38:47.348Z,20.83
2023-08-09T13:41:16.610Z,20.94
2023-08-09T13:43:44.692Z,21.12
2023-08-09T13:46:12.609Z,21.27
2023-08-09T13:48:40.520Z,21.49
2023-08-09T13:51:08.363Z,21.30
2023-08-09T13:53:36.283Z,21.14
2023-08-09T13:56:04.213Z,21.03
2023-08-09T13:58:33.438Z,20.82
2023-08-09T14:01:01.301Z,20.87
2023-08-09T14:03:30.074Z,21.08
2023-08-09T14:05:58.020Z,21.12
2023-08-09T14:08:25.873Z,21.32
2023-08-09T14:10:53.677Z,21.54
2023-08-09T14:13:21.793Z,21.86
2023-08-09T14:15:52.556Z,21.76
2023-08-09T14:18:22.721Z,21.60
2023-08-09T14:20:50.719Z,21.46
2023-08-09T14:23:18.864Z,21.15
2023-08-09T14:25:46.701Z,21.12
2023-08-09T14:28:14.647Z,20.92
2023-08-09T14:30:42.522Z,20.87
2023-08-09T14:33:13.348Z,20.97
2023-08-09T14:35:41.391Z,21.16
2023-08-09T14:38:09.386Z,21.43
2023-08-09T14:40:37.303Z,21.69
2023-08-09T14:43:05.579Z,21.67
2023-08-09T14:45:33.615Z,21.69
2023-08-09T14:48:01.619Z,21.76
2023-08-09T14:50:30.866Z,21.85
2023-08-09T14:52:58.747Z,22.00
2023-08-09T14:55:26.694Z,21.84
2023-08-09T14:57:54.559Z,21.94
2023-08-09T15:00:22.827Z,21.81
2023-08-09T15:02:51.095Z,21.86
2023-08-09T15:05:19.102Z,21.89
2023-08-09T15:07:48.403Z,22.09
2023-08-09T15:10:16.319Z,22.37
2023-08-09T15:12:44.191Z,22.58
2023-08-09T15:15:12.456Z,22.83
2023-08-09T15:17:40.456Z,23.05
2023-08-09T15:20:12.282Z,23.19
2023-08-09T15:22:40.396Z,23.26
2023-08-09T15:25:20.023Z,23.30
2023-08-09T15:27:48.481Z,23.38
2023-08-09T15:30:17.404Z,23.23
2023-08-09T15:32:46.076Z,23.19
2023-08-09T15:35:14.479Z,23.32
2023-08-09T15:37:42.930Z,23.52
2023-08-09T15:40:13.282Z,23.51
2023-08-09T15:42:42.886Z,23.53
2023-08-09T15:45:11.682Z,23.52
2023-08-09T15:47:39.890Z,23.07
2023-08-09T15:50:09.179Z,23.05
2023-08-09T15:52:37.027Z,23.03
2023-08-09T15:55:05.375Z,22.88
2023-08-09T15:57:33.278Z,22.88
2023-08-09T16:00:03.822Z,22.87
2023-08-09T16:02:34.403Z,22.70
2023-08-09T16:05:02.396Z,22.30
2023-08-09T16:07:30.218Z,22.15
2023-08-09T16:09:58.075Z,22.11
2023-08-09T16:12:25.879Z,21.87
2023-08-09T16:14:53.773Z,21.59
2023-08-09T16:17:23.732Z,21.48
2023-08-09T16:19:52.452Z,21.46
2023-08-09T16:22:24.456Z,21.45
2023-08-09T16:24:52.360Z,21.48
2023-08-09T16:27:20.203Z,21.50
2023-08-09T16:29:48.073Z,21.51
2023-08-09T16:32:15.974Z,21.48
2023-08-09T16:34:45.360Z,21.44
2023-08-09T16:37:13.188Z,21.37
2023-08-09T16:39:41.042Z,21.28
2023-08-09T16:42:09.046Z,21.21
2023-08-09T16:44:36.877Z,21.11
2023-08-09T16:47:05.087Z,20.95
2023-08-09T16:49:33.213Z,20.88
2023-08-09T16:52:02.834Z,20.70
2023-08-09T16:54:30.694Z,20.56
2023-08-09T16:56:58.559Z,20.43
2023-08-09T16:59:26.364Z,20.23
2023-08-09T17:01:54.266Z,20.08
2023-08-09T17:04:22.096Z,19.95
2023-08-09T17:06:50.307Z,19.87
2023-08-09T17:09:19.525Z,19.77
2023-08-09T17:11:47.367Z,19.69
2023-08-09T17:14:15.244Z,19.58
2023-08-09T17:16:43.152Z,19.48
2023-08-09T17:19:11.104Z,19.40
2023-08-09T17:21:39.008Z,19.33
2023-08-09T17:24:07.689Z,19.27
2023-08-09T17:26:36.912Z,19.20
2023-08-09T17:29:04.856Z,19.09
2023-08-09T17:31:32.731Z,19.04
2023-08-09T17:34:00.675Z,19.00
2023-08-09T17:36:28.557Z,18.96
2023-08-09T17:38:56.382Z,18.92
2023-08-09T17:41:24.388Z,18.86
2023-08-09T17:43:53.567Z,18.80
2023-08-09T17:46:23.186Z,18.72
2023-08-09T17:48:53.062Z,18.69
2023-08-09T17:51:21.885Z,18.66
2023-08-09T17:53:49.817Z,18.58
2023-08-09T17:56:17.805Z,18.44
2023-08-09T17:58:45.699Z,18.34
2023-08-09T18:01:14.944Z,18.23
2023-08-09T18:03:42.812Z,18.19
2023-08-09T18:06:10.728Z,18.17
2023-08-09T18:08:38.586Z,18.15
2023-08-09T18:11:06.573Z,18.15
2023-08-09T18:13:34.366Z,18.12
2023-08-09T18:16:02.329Z,18.09
2023-08-09T18:18:31.497Z,18.07
2023-08-09T18:20:59.403Z,18.00
2023-08-09T18:23:27.471Z,17.93
2023-08-09T18:25:55.336Z,17.86
2023-08-09T18:28:23.226Z,17.73
2023-08-09T18:30:51.219Z,17.65
2023-08-09T18:33:19.062Z,17.59
2023-08-09T18:35:48.263Z,17.53
2023-08-09T18:38:16.120Z,17.49
2023-08-09T18:40:43.980Z,17.37
2023-08-09T18:43:12.278Z,17.27
2023-08-09T18:45:40.166Z,17.18
2023-08-09T18:48:09.064Z,17.03
2023-08-09T18:50:36.950Z,16.90
2023-08-09T18:53:06.230Z,16.79
2023-08-09T18:55:34.487Z,16.70
2023-08-09T18:58:02.323Z,16.58
2023-08-09T19:00:32.175Z,16.48
2023-08-09T19:03:00.051Z,16.38
2023-08-09T19:05:27.937Z,16.26
2023-08-09T19:07:55.894Z,16.19
2023-08-09T19:10:25.112Z,16.14
2023-08-09T19:12:53.174Z,16.07
2023-08-09T19:15:22.110Z,15.97
2023-08-09T19:17:50.113Z,15.87
2023-08-09T19:20:18.364Z,15.73
2023-08-09T19:22:46.208Z,15.62
2023-08-09T19:25:16.317Z,15.52
2023-08-09T19:27:45.588Z,15.39
2023-08-09T19:30:14.814Z,15.28
2023-08-09T19:32:42.839Z,15.19
2023-08-09T19:35:11.279Z,15.12
2023-08-09T19:37:39.149Z,15.05
2023-08-09T19:40:08.729Z,14.97
2023-08-09T19:42:37.695Z,14.89
2023-08-09T19:45:09.655Z,14.82
2023-08-09T19:47:37.579Z,14.74
2023-08-09T19:50:06.270Z,14.67
2023-08-09T19:52:34.693Z,14.59
2023-08-09T19:55:02.568Z,14.51
2023-08-09T19:57:30.448Z,14.43
2023-08-09T19:59:58.620Z,14.34
2023-08-09T20:02:28.160Z,14.28
2023-08-09T20:04:56.165Z,14.23
2023-08-09T20:07:24.019Z,14.20
2023-08-09T20:09:51.858Z,14.15
2023-08-09T20:12:19.676Z,14.07
2023-08-09T20:14:47.539Z,13.99
2023-08-09T20:17:15.499Z,13.96
2023-08-09T20:19:44.726Z,13.93
2023-08-09T20:22:12.564Z,13.92
2023-08-09T20:24:42.472Z,13.88
2023-08-09T20:27:11.553Z,13.83
2023-08-09T20:29:40.055Z,13.79
2023-08-09T20:32:08.346Z,13.77
2023-08-09T20:34:36.915Z,13.73
2023-08-09T20:37:06.372Z,13.67
2023-08-09T20:39:34.453Z,13.66
2023-08-09T20:42:02.348Z,13.63
2023-08-09T20:44:36.061Z,13.61
2023-08-09T20:47:04.629Z,13.59
2023-08-09T20:49:32.883Z,13.58
2023-08-09T20:52:03.437Z,13.58
2023-08-09T20:54:32.799Z,13.58
2023-08-09T20:57:01.073Z,13.56
2023-08-09T20:59:31.781Z,13.56
2023-08-09T21:01:59.727Z,13.57
2023-08-09T21:04:27.723Z,13.60
2023-08-09T21:06:55.578Z,13.59
2023-08-09T21:09:23.743Z,13.60
2023-08-09T21:11:52.971Z,13.59
2023-08-09T21:14:21.433Z,13.59
2023-08-09T21:16:49.216Z,13.59
2023-08-09T21:19:18.168Z,13.61
2023-08-09T21:21:46.066Z,13.62
2023-08-09T21:26:50.616Z,13.60
2023-08-09T21:29:22.294Z,13.58
2023-08-09T21:31:50.569Z,13.55
2023-08-09T21:34:18.627Z,13.52
2023-08-09T21:36:46.772Z,13.47
2023-08-09T21:39:14.744Z,13.45
2023-08-09T21:41:42.671Z,13.42
2023-08-09T21:44:11.084Z,13.40
2023-08-09T21:46:40.353Z,13.36
2023-08-09T21:49:08.271Z,13.35
2023-08-09T21:51:36.138Z,13.36
2023-08-09T21:54:04.133Z,13.34
2023-08-09T21:56:31.997Z,13.31
2023-08-09T21:58:59.860Z,13.27
2023-08-09T22:01:28.931Z,13.26
2023-08-09T22:06:36.650Z,13.27
2023-08-09T22:09:06.302Z,13.26
2023-08-09T22:11:34.311Z,13.28
2023-08-09T22:14:02.154Z,13.31
2023-08-09T22:16:30.109Z,13.31
2023-08-09T22:18:57.971Z,13.32
2023-08-09T22:21:25.876Z,13.33
2023-08-09T22:23:55.023Z,13.35
2023-08-09T22:26:22.982Z,13.36
2023-08-09T22:28:50.886Z,13.35
2023-08-09T22:31:18.792Z,13.36
2023-08-09T22:33:46.664Z,13.37
2023-08-09T22:36:14.638Z,13.41
2023-08-09T22:41:11.696Z,13.44
2023-08-09T22:43:39.519Z,13.46
2023-08-09T22:46:07.472Z,13.46
2023-08-09T22:48:35.378Z,13.46
2023-08-09T22:51:03.455Z,13.46
2023-08-09T22:53:31.314Z,13.44
2023-08-09T22:55:59.972Z,13.43
2023-08-09T22:58:29.198Z,13.41
2023-08-09T23:00:57.064Z,13.39
2023-08-09T23:03:25.036Z,13.37
2023-08-09T23:05:52.971Z,13.34
2023-08-09T23:08:20.876Z,13.31
2023-08-09T23:10:48.825Z,13.25
2023-08-09T23:13:16.679Z,13.20
2023-08-09T23:15:46.285Z,13.15
2023-08-09T23:18:14.623Z,13.09
2023-08-09T23:20:42.652Z,13.03
2023-08-09T23:23:11.484Z,12.98
2023-08-09T23:25:39.335Z,12.93
2023-08-09T23:28:08.263Z,12.89
2023-08-09T23:30:36.220Z,12.86
2023-08-09T23:33:06.270Z,12.78
2023-08-09T23:35:34.576Z,12.70
2023-08-09T23:38:02.644Z,12.64
2023-08-09T23:40:30.523Z,12.58
2023-08-09T23:42:58.371Z,12.51
2023-08-09T23:45:26.296Z,12.47
2023-08-09T23:47:54.223Z,12.43
2023-08-09T23:50:24.280Z,12.38
2023-08-09T23:52:52.364Z,12.35
2023-08-09T23:55:20.204Z,12.33
2023-08-09T23:57:48.049Z,12.29
